Terminal Aerodrome Forecast
Issued by NWS North Platte, NE

Home | Current Version | Previous Version | Text Only | Print | Product List | Glossary On
Versions: 1 2 3 4 5 6 7 8 9 10 11 12 13 14
000
FTUS43 KLBF 262300
TAFLBF
TAF
KLBF 262321Z 2700/2724 36012KT 2SM -SN BR OVC018
      TEMPO 2700/2704 3/4SM -SN BR OVC012
     FM270400 36008KT 3SM -SN BR OVC025
     FM270800 32006KT P6SM OVC050
     FM271200 30006KT P6SM SCT250
     FM271500 27008KT P6SM SKC=

USA.gov is the U.S. government's official web portal to all federal, state and local government web resources and services.